Weston, Illinois
Current Conditions -  °F | °C
As of 9:55 PM on Sunday 21 Dec 2014 (Local Time) from KPNT Reporting Station
Overcast Overcast  
Wind Chill: 24°   Ceiling: 4000
Heat Index: 32°   Visibility: 7mi
Dew Point: 31°   Wind: 9mph
Humidity: 95%   Direction: 120°ESE
Pressure: 30.02"   Gusts: NA
Location:  40.7409°N, 88.7189°W
Report Text: KPNT 220355Z AUTO 12008KT 7SM OVC040 00/M01 A3002 RMK AO2 T00001007
Loading
Personal Weather Stations






























Interactive Weather Map New forecast layout! Learn more

10-Day Weather Forecast

Advertisements
Track Severe Weather on mobile